Time;durP1;ratioP1;P1;durP2;ratioP2;P2;SDS_P1;SDS_P2;PMS_P1;PMS_P2;Temp;Humidity;BMP_temperature;BMP_pressure;BME280_temperature;BME280_humidity;BME280_pressure;Samples;Min_cycle;Max_cycle;Signal;HPM_P1;HPM_P2
2023/07/09 00:02:12;;;;;;;7.43;6.18;;;25.60;90.80;;;;;;6119885;28;87150;-96
2023/07/09 00:09:29;;;;;;;6.20;5.60;;;25.70;90.90;;;;;;6120954;28;87439;-96
2023/07/09 00:22:30;;;;;;;6.10;5.50;;;25.70;90.90;;;;;;6028642;29;87738;-96
2023/07/09 00:25:41;;;;;;;6.50;5.53;;;25.70;90.90;;;;;;6028656;29;87321;-96
2023/07/09 00:47:44;;;;;;;7.10;6.40;;;25.70;90.80;;;;;;6050511;29;86840;-96
2023/07/09 00:57:41;;;;;;;6.90;6.20;;;25.70;90.70;;;;;;6143913;28;87743;-96
2023/07/09 01:00:57;;;;;;;6.50;5.85;;;25.70;90.80;;;;;;6098241;28;87040;-96
2023/07/09 01:11:21;;;;;;;6.70;6.00;;;25.70;90.80;;;;;;6096100;28;87721;-96
2023/07/09 01:14:26;;;;;;;6.40;5.80;;;25.70;90.80;;;;;;6082012;28;87764;-96
2023/07/09 01:17:29;;;;;;;6.63;5.93;;;25.70;90.80;;;;;;6113590;28;86354;-96
2023/07/09 01:20:33;;;;;;;6.85;6.15;;;25.70;90.80;;;;;;6145455;28;87172;-96
2023/07/09 01:24:07;;;;;;;6.47;5.75;;;25.70;90.70;;;;;;6143934;28;87251;-96
2023/07/09 01:30:36;;;;;;;7.43;6.20;;;25.70;90.70;;;;;;6144327;28;86710;-96
2023/07/09 01:54:50;;;;;;;6.95;6.00;;;25.70;90.70;;;;;;6145330;28;87673;-96
2023/07/09 02:01:25;;;;;;;6.78;5.95;;;25.70;90.80;;;;;;6142789;28;88679;-96
2023/07/09 02:04:28;;;;;;;6.82;6.13;;;25.70;90.80;;;;;;6143852;28;87154;-96
2023/07/09 02:07:39;;;;;;;6.70;5.82;;;25.70;90.70;;;;;;6145529;28;87116;-96
2023/07/09 02:17:41;;;;;;;6.45;5.80;;;25.80;90.70;;;;;;6196464;28;87700;-96
2023/07/09 02:24:03;;;;;;;6.20;5.60;;;25.70;90.70;;;;;;6192909;28;87103;-96
2023/07/09 02:27:13;;;;;;;6.55;5.68;;;25.70;90.70;;;;;;6193787;28;86920;-96
2023/07/09 02:30:16;;;;;;;6.25;5.65;;;25.80;90.80;;;;;;6194183;28;87152;-96
2023/07/09 02:33:23;;;;;;;6.85;6.07;;;25.70;90.70;;;;;;6193766;28;88061;-96
2023/07/09 02:42:59;;;;;;;6.30;5.70;;;25.70;90.80;;;;;;6096574;28;87527;-96
2023/07/09 02:46:02;;;;;;;6.20;5.60;;;25.70;90.80;;;;;;6094675;28;87054;-96
2023/07/09 02:49:11;;;;;;;7.03;5.82;;;25.70;90.80;;;;;;6093608;28;87973;-96
2023/07/09 02:52:13;;;;;;;6.30;5.70;;;25.70;90.70;;;;;;6092944;28;88131;-96
2023/07/09 02:55:15;;;;;;;6.28;5.68;;;25.80;90.70;;;;;;6235515;22;86612;-72
2023/07/09 02:58:17;;;;;;;6.28;5.68;;;25.70;90.70;;;;;;6243880;27;89214;-71
2023/07/09 03:01:20;;;;;;;6.15;5.55;;;25.70;90.60;;;;;;6249940;27;89423;-71
2023/07/09 03:04:25;;;;;;;6.95;6.25;;;25.80;90.60;;;;;;6244467;27;90141;-73
2023/07/09 03:07:56;;;;;;;7.35;6.10;;;25.70;90.60;;;;;;6253650;27;90425;-74
2023/07/09 03:10:58;;;;;;;6.93;5.88;;;25.70;90.60;;;;;;6238659;27;89116;-73
2023/07/09 03:14:01;;;;;;;6.90;6.20;;;25.70;90.60;;;;;;6252733;27;89398;-73
2023/07/09 03:17:03;;;;;;;7.60;5.80;;;25.70;90.60;;;;;;6249857;27;89463;-73
2023/07/09 03:20:08;;;;;;;6.72;5.63;;;25.70;90.60;;;;;;6249859;27;89046;-74
2023/07/09 03:23:10;;;;;;;6.55;5.95;;;25.70;90.60;;;;;;6245493;27;89114;-73
2023/07/09 03:26:13;;;;;;;7.25;5.95;;;25.70;90.60;;;;;;6243253;27;87333;-72
2023/07/09 03:29:16;;;;;;;6.70;5.80;;;25.70;90.70;;;;;;6249630;27;88164;-72
2023/07/09 03:32:17;;;;;;;6.97;5.78;;;25.70;90.70;;;;;;6243490;27;89147;-73
2023/07/09 03:35:21;;;;;;;6.00;5.50;;;25.70;90.60;;;;;;6253684;27;90043;-73
2023/07/09 03:38:23;;;;;;;7.05;6.30;;;25.70;90.60;;;;;;6248362;27;88711;-73
2023/07/09 03:41:25;;;;;;;6.60;5.72;;;25.70;90.70;;;;;;6246486;27;88157;-72
2023/07/09 03:44:28;;;;;;;5.32;4.82;;;25.70;90.70;;;;;;6249558;28;89229;-73
2023/07/09 03:47:30;;;;;;;6.35;5.75;;;25.70;90.60;;;;;;6250560;27;88296;-72
2023/07/09 03:50:34;;;;;;;6.00;5.40;;;25.70;90.60;;;;;;6255368;27;89479;-73
2023/07/09 03:53:36;;;;;;;8.98;6.35;;;25.70;91.00;;;;;;6248707;27;89621;-73
2023/07/09 03:56:38;;;;;;;6.45;5.28;;;25.70;90.60;;;;;;6247171;27;88337;-73
2023/07/09 03:59:40;;;;;;;7.28;5.28;;;25.70;90.60;;;;;;6255120;27;88002;-73
2023/07/09 04:02:44;;;;;;;5.80;5.20;;;25.70;90.60;;;;;;6242522;27;88976;-72
2023/07/09 04:05:49;;;;;;;6.00;5.50;;;25.70;90.60;;;;;;6253154;27;90026;-73
2023/07/09 04:08:51;;;;;;;6.20;5.60;;;25.70;91.00;;;;;;6246856;27;89599;-72
2023/07/09 04:11:53;;;;;;;7.05;5.75;;;25.70;90.60;;;;;;6250678;27;87997;-73
2023/07/09 04:14:55;;;;;;;5.55;5.05;;;25.70;90.60;;;;;;6250378;27;88969;-72
2023/07/09 04:17:57;;;;;;;6.80;5.57;;;25.60;90.60;;;;;;6251695;27;89063;-71
2023/07/09 04:21:00;;;;;;;5.95;5.45;;;25.70;90.70;;;;;;6255738;27;89496;-71
2023/07/09 04:24:02;;;;;;;6.45;5.80;;;25.70;90.70;;;;;;6243007;27;89253;-70
2023/07/09 04:27:05;;;;;;;7.00;5.53;;;25.60;90.70;;;;;;6254071;27;88328;-71
2023/07/09 04:30:11;;;;;;;6.25;4.93;;;25.70;90.70;;;;;;6255262;27;89243;-70
2023/07/09 04:33:13;;;;;;;6.80;5.90;;;25.70;90.70;;;;;;6247643;27;89307;-71
2023/07/09 04:36:16;;;;;;;7.50;5.75;;;25.70;90.60;;;;;;6250760;27;90251;-71
2023/07/09 04:39:18;;;;;;;6.10;5.50;;;25.70;90.70;;;;;;6254583;27;89242;-71
2023/07/09 04:42:20;;;;;;;7.55;5.60;;;25.70;90.60;;;;;;6251166;27;89322;-71
2023/07/09 04:45:22;;;;;;;6.15;5.57;;;25.70;90.70;;;;;;6250717;27;89132;-71
2023/07/09 04:48:24;;;;;;;6.00;5.40;;;25.70;90.60;;;;;;6249654;27;90227;-71
2023/07/09 04:51:28;;;;;;;6.40;5.80;;;25.70;90.60;;;;;;6254193;27;88038;-71
2023/07/09 04:54:30;;;;;;;8.50;5.68;;;25.70;90.70;;;;;;6250474;27;89375;-71
2023/07/09 04:57:32;;;;;;;6.90;5.95;;;25.70;90.70;;;;;;6247107;27;87648;-71
2023/07/09 05:00:34;;;;;;;6.00;5.50;;;25.70;90.70;;;;;;6253762;27;88076;-71
2023/07/09 05:03:38;;;;;;;6.25;5.65;;;25.70;90.70;;;;;;6251362;27;89392;-70
2023/07/09 05:06:41;;;;;;;7.18;6.28;;;25.80;90.70;;;;;;6246898;27;89974;-71
2023/07/09 05:09:43;;;;;;;5.88;5.28;;;25.70;90.70;;;;;;6245555;27;89136;-71
2023/07/09 05:12:50;;;;;;;5.45;4.95;;;25.80;90.70;;;;;;6234961;27;89121;-70
2023/07/09 05:15:52;;;;;;;5.85;5.35;;;25.80;90.70;;;;;;6257060;27;89109;-70
2023/07/09 05:18:54;;;;;;;7.13;5.78;;;25.80;90.70;;;;;;6244287;27;89544;-71
2023/07/09 05:21:58;;;;;;;6.28;5.18;;;25.80;90.60;;;;;;6250137;27;88729;-71
2023/07/09 05:25:00;;;;;;;6.05;5.40;;;25.80;90.60;;;;;;6247412;27;89330;-70
2023/07/09 05:28:02;;;;;;;5.75;5.25;;;25.80;90.60;;;;;;6256323;27;88719;-71
2023/07/09 05:31:05;;;;;;;6.93;5.60;;;25.80;90.60;;;;;;6258317;28;89326;-70
2023/07/09 05:34:07;;;;;;;6.10;5.50;;;25.80;90.50;;;;;;6255028;27;89400;-71
2023/07/09 05:37:11;;;;;;;5.95;5.35;;;25.80;90.50;;;;;;6244201;27;90405;-71
2023/07/09 05:40:13;;;;;;;6.32;5.57;;;25.80;90.50;;;;;;6254087;27;89027;-71
2023/07/09 05:43:15;;;;;;;6.10;5.57;;;25.80;90.50;;;;;;6248847;27;89316;-72
2023/07/09 05:46:17;;;;;;;6.03;5.43;;;25.80;90.50;;;;;;6257763;27;89158;-73
2023/07/09 05:49:19;;;;;;;5.55;5.05;;;25.80;90.50;;;;;;6241703;27;89169;-73
2023/07/09 05:52:24;;;;;;;6.25;5.70;;;25.80;90.50;;;;;;6244224;27;89152;-73
2023/07/09 05:55:26;;;;;;;6.20;5.60;;;25.80;90.60;;;;;;6248501;27;88959;-73
2023/07/09 05:58:28;;;;;;;6.30;5.70;;;25.80;90.60;;;;;;6248824;27;88588;-73
2023/07/09 06:01:30;;;;;;;6.00;5.40;;;25.80;90.60;;;;;;6245705;28;89143;-73
2023/07/09 06:04:32;;;;;;;6.00;5.40;;;25.90;90.60;;;;;;6255715;27;89443;-73
2023/07/09 06:07:35;;;;;;;6.20;5.70;;;25.80;90.60;;;;;;6249416;27;90397;-73
2023/07/09 06:10:37;;;;;;;6.03;5.53;;;25.90;90.60;;;;;;6252018;27;89208;-72
2023/07/09 06:13:39;;;;;;;5.60;5.10;;;25.90;90.60;;;;;;6245408;27;89094;-73
2023/07/09 06:16:41;;;;;;;5.43;4.93;;;25.90;90.60;;;;;;6262885;27;89104;-72
2023/07/09 06:19:43;;;;;;;5.82;5.25;;;25.80;90.60;;;;;;6236067;27;89307;-73
2023/07/09 06:22:47;;;;;;;6.22;5.63;;;25.80;90.60;;;;;;6249785;27;89271;-73
2023/07/09 06:25:50;;;;;;;5.88;5.30;;;25.90;90.60;;;;;;6249861;27;89186;-73
2023/07/09 06:28:52;;;;;;;5.60;5.10;;;25.90;90.70;;;;;;6244893;27;88141;-73
2023/07/09 06:31:54;;;;;;;6.53;5.82;;;25.90;90.70;;;;;;6256549;27;89096;-73
2023/07/09 06:34:56;;;;;;;5.90;5.40;;;25.90;90.70;;;;;;6245701;28;89146;-73
2023/07/09 06:37:59;;;;;;;6.07;5.53;;;25.90;90.70;;;;;;6233773;27;90093;-73
2023/07/09 06:41:01;;;;;;;6.20;5.60;;;25.90;90.70;;;;;;6255169;27;89097;-73
2023/07/09 06:44:04;;;;;;;5.82;5.32;;;25.90;90.70;;;;;;6256178;27;89172;-73
2023/07/09 06:47:06;;;;;;;5.60;5.10;;;25.90;90.70;;;;;;6256211;27;89168;-73
2023/07/09 06:50:08;;;;;;;5.72;5.20;;;25.90;90.70;;;;;;6256559;27;89218;-73
2023/07/09 06:53:12;;;;;;;6.22;5.63;;;25.90;91.10;;;;;;6255510;27;88387;-73
2023/07/09 06:56:14;;;;;;;6.07;5.20;;;25.80;90.70;;;;;;6253393;27;89076;-72
2023/07/09 06:59:16;;;;;;;5.75;5.25;;;25.90;90.70;;;;;;6238861;27;88297;-73
2023/07/09 07:02:18;;;;;;;6.03;5.40;;;25.90;90.70;;;;;;6243876;27;87851;-72
2023/07/09 07:05:20;;;;;;;5.97;5.47;;;25.90;90.70;;;;;;6247987;27;88135;-73
2023/07/09 07:08:25;;;;;;;7.10;6.00;;;25.90;90.80;;;;;;6246498;27;90098;-72
2023/07/09 07:11:29;;;;;;;6.20;5.63;;;25.90;90.70;;;;;;6255007;27;89326;-72
2023/07/09 07:14:32;;;;;;;6.63;5.90;;;25.90;90.80;;;;;;6249103;27;89076;-72
2023/07/09 07:17:34;;;;;;;6.25;5.43;;;25.90;90.80;;;;;;6240969;27;89077;-73
2023/07/09 07:20:36;;;;;;;6.38;5.78;;;25.90;90.80;;;;;;6254194;27;88024;-74
2023/07/09 07:23:40;;;;;;;5.90;5.30;;;25.90;90.80;;;;;;6252036;27;89339;-73
2023/07/09 07:26:41;;;;;;;6.30;5.70;;;25.90;90.90;;;;;;6255067;27;87990;-73
2023/07/09 07:29:45;;;;;;;6.13;5.57;;;25.90;90.90;;;;;;6245632;27;88400;-72
2023/07/09 07:32:49;;;;;;;6.28;5.68;;;25.90;90.90;;;;;;6250356;27;90352;-73
2023/07/09 07:35:51;;;;;;;5.80;5.30;;;25.90;90.90;;;;;;6250877;27;89058;-72
2023/07/09 07:38:54;;;;;;;6.18;5.60;;;25.90;90.90;;;;;;6246033;27;89985;-73
2023/07/09 07:41:57;;;;;;;6.60;6.00;;;25.90;90.90;;;;;;6255801;27;89218;-72
2023/07/09 07:45:26;;;;;;;7.10;6.40;;;25.90;90.90;;;;;;6247226;27;89009;-73
2023/07/09 07:48:28;;;;;;;6.60;6.00;;;25.90;91.00;;;;;;6248233;27;87947;-73
2023/07/09 07:51:30;;;;;;;6.50;5.90;;;25.90;91.00;;;;;;6249560;27;88974;-73
2023/07/09 07:54:34;;;;;;;6.70;6.10;;;26.00;91.10;;;;;;6254419;27;88927;-73
2023/07/09 07:57:36;;;;;;;6.80;6.15;;;25.90;91.20;;;;;;6252137;27;89128;-73
2023/07/09 08:00:38;;;;;;;7.45;6.68;;;25.90;91.20;;;;;;6245756;28;89880;-72
2023/07/09 08:03:40;;;;;;;6.90;6.20;;;25.90;91.30;;;;;;6255237;28;87853;-73
2023/07/09 08:06:42;;;;;;;6.53;5.93;;;25.90;91.30;;;;;;6243157;27;89199;-72
2023/07/09 08:09:47;;;;;;;7.88;6.43;;;25.90;91.30;;;;;;6236318;27;90192;-73
2023/07/09 08:12:49;;;;;;;6.53;5.90;;;25.90;91.30;;;;;;6239267;27;89100;-73
2023/07/09 08:15:51;;;;;;;6.40;5.80;;;25.90;91.30;;;;;;6254559;28;89024;-73
2023/07/09 08:18:53;;;;;;;6.95;6.20;;;25.90;91.30;;;;;;6253665;27;87737;-73
2023/07/09 08:21:55;;;;;;;7.38;6.20;;;25.90;91.30;;;;;;6254296;27;88001;-73
2023/07/09 08:24:58;;;;;;;7.53;6.65;;;25.90;91.30;;;;;;6248513;27;89107;-72
2023/07/09 08:28:01;;;;;;;6.75;6.05;;;25.90;91.40;;;;;;6251469;27;89025;-73
2023/07/09 08:31:03;;;;;;;6.95;6.25;;;25.90;91.40;;;;;;6253680;27;88279;-70
2023/07/09 08:34:07;;;;;;;6.88;6.20;;;25.90;91.30;;;;;;6249639;27;87987;-70
2023/07/09 08:37:10;;;;;;;6.57;5.97;;;25.90;91.30;;;;;;6253530;27;89000;-70
2023/07/09 08:40:17;;;;;;;7.32;6.47;;;25.90;91.30;;;;;;6254510;27;90686;-70
2023/07/09 08:43:34;;;;;;;7.20;6.50;;;25.90;91.30;;;;;;6255514;27;88025;-70
2023/07/09 08:46:50;;;;;;;6.82;6.18;;;26.00;91.40;;;;;;6259070;27;89089;-70
2023/07/09 08:49:57;;;;;;;7.70;6.15;;;25.90;91.30;;;;;;6256289;27;88892;-70
2023/07/09 08:52:59;;;;;;;6.90;6.00;;;25.90;91.40;;;;;;6256702;27;89402;-70
2023/07/09 08:56:05;;;;;;;6.97;6.20;;;25.90;91.40;;;;;;6254183;27;89077;-70
2023/07/09 08:59:12;;;;;;;6.47;5.82;;;25.90;91.50;;;;;;6258113;27;87960;-70
2023/07/09 09:02:22;;;;;;;7.43;5.82;;;25.90;91.50;;;;;;6259149;27;88578;-70
2023/07/09 09:05:26;;;;;;;7.85;6.07;;;25.90;91.50;;;;;;6255203;27;89043;-70
2023/07/09 09:08:39;;;;;;;6.45;5.85;;;25.90;91.50;;;;;;6266988;27;89506;-71
2023/07/09 09:11:46;;;;;;;6.63;6.03;;;25.90;91.50;;;;;;6256337;27;90039;-70
2023/07/09 09:14:53;;;;;;;6.15;5.55;;;25.90;91.50;;;;;;6256173;27;89056;-70
2023/07/09 09:18:15;;;;;;;7.47;6.43;;;25.90;91.50;;;;;;6257816;27;89129;-70
2023/07/09 09:21:30;;;;;;;6.57;5.90;;;25.90;91.50;;;;;;6245030;27;89159;-71
2023/07/09 09:24:40;;;;;;;6.68;6.07;;;26.00;91.50;;;;;;6236351;27;89364;-70
2023/07/09 09:27:44;;;;;;;6.55;5.95;;;25.90;91.40;;;;;;6250430;27;89064;-71
2023/07/09 09:30:46;;;;;;;6.47;5.70;;;25.90;91.60;;;;;;6255051;27;89311;-70
2023/07/09 09:33:50;;;;;;;6.78;5.90;;;25.90;91.50;;;;;;6256602;27;88504;-71
2023/07/09 09:36:52;;;;;;;6.57;5.90;;;25.90;91.40;;;;;;6250107;27;89133;-70
2023/07/09 09:39:54;;;;;;;6.82;6.13;;;25.90;91.50;;;;;;6258510;27;89078;-70
2023/07/09 09:43:00;;;;;;;6.22;5.70;;;25.90;91.50;;;;;;6266306;27;90006;-70
2023/07/09 09:46:07;;;;;;;6.53;5.93;;;25.90;91.50;;;;;;6254386;27;89447;-71
2023/07/09 09:49:11;;;;;;;6.90;6.20;;;25.90;91.50;;;;;;6246789;27;88897;-71
2023/07/09 09:52:15;;;;;;;6.90;6.20;;;25.90;91.50;;;;;;6247905;27;89013;-71
2023/07/09 09:55:20;;;;;;;7.57;6.10;;;25.90;91.50;;;;;;6258072;27;89093;-70
2023/07/09 09:58:28;;;;;;;6.07;5.47;;;25.90;91.50;;;;;;6258775;27;89031;-71
2023/07/09 10:01:34;;;;;;;7.78;5.60;;;26.00;91.60;;;;;;6245546;27;88301;-70
2023/07/09 10:04:36;;;;;;;5.85;5.35;;;26.00;91.60;;;;;;6257427;27;88651;-70
2023/07/09 10:07:47;;;;;;;5.85;5.35;;;25.90;91.50;;;;;;6247573;27;89045;-70
2023/07/09 10:10:52;;;;;;;6.50;5.60;;;26.00;91.60;;;;;;6240953;27;89685;-70
2023/07/09 10:13:58;;;;;;;5.95;5.45;;;25.90;91.50;;;;;;6259510;27;89974;-70
2023/07/09 10:17:06;;;;;;;5.97;5.43;;;25.90;91.60;;;;;;6252889;27;89066;-70
2023/07/09 10:20:25;;;;;;;6.13;5.60;;;25.90;91.50;;;;;;6244961;28;89097;-71
2023/07/09 10:23:31;;;;;;;5.78;5.28;;;25.90;91.50;;;;;;6252010;27;89467;-70
2023/07/09 10:26:41;;;;;;;6.40;5.80;;;26.00;91.60;;;;;;6250621;27;89144;-70
2023/07/09 10:29:59;;;;;;;6.57;5.97;;;26.00;91.60;;;;;;6253746;27;89057;-70
2023/07/09 10:33:10;;;;;;;6.28;5.68;;;25.90;91.60;;;;;;6245761;27;88947;-70
2023/07/09 10:36:24;;;;;;;6.40;5.80;;;25.90;91.70;;;;;;6250473;27;88268;-70
2023/07/09 10:39:33;;;;;;;6.32;5.72;;;26.00;91.80;;;;;;6235379;28;89531;-70
2023/07/09 10:42:41;;;;;;;7.13;5.60;;;25.90;91.80;;;;;;6273050;27;89139;-70
2023/07/09 10:45:48;;;;;;;6.40;5.80;;;25.90;91.90;;;;;;6245909;27;90288;-70
2023/07/09 10:48:52;;;;;;;5.90;5.30;;;26.00;92.00;;;;;;6253653;27;89493;-71
2023/07/09 10:51:57;;;;;;;6.70;5.68;;;26.00;92.00;;;;;;6254722;27;89402;-70
2023/07/09 10:55:05;;;;;;;6.57;5.78;;;26.00;92.10;;;;;;6250143;27;89094;-70
2023/07/09 10:58:22;;;;;;;5.88;5.28;;;26.00;92.20;;;;;;6251467;27;89080;-71
2023/07/09 11:01:32;;;;;;;5.75;5.25;;;26.00;92.10;;;;;;6253346;27;88179;-70
2023/07/09 11:04:41;;;;;;;5.88;5.38;;;26.00;92.10;;;;;;6236090;27;89164;-70
2023/07/09 11:07:47;;;;;;;7.10;5.30;;;26.00;92.10;;;;;;6246120;27;88629;-71
2023/07/09 11:10:54;;;;;;;5.53;5.03;;;26.00;92.20;;;;;;6238890;27;88846;-71
2023/07/09 11:14:00;;;;;;;6.15;5.55;;;26.00;92.60;;;;;;6238402;27;89028;-70
2023/07/09 11:17:05;;;;;;;5.95;5.35;;;26.00;92.30;;;;;;6252052;28;90200;-70
2023/07/09 11:20:19;;;;;;;6.60;5.50;;;26.00;92.40;;;;;;6250294;27;89243;-71
2023/07/09 11:23:23;;;;;;;6.18;5.57;;;26.00;92.40;;;;;;6245040;27;89074;-72
2023/07/09 11:26:28;;;;;;;5.85;5.30;;;26.00;92.40;;;;;;6254324;27;89060;-71
2023/07/09 11:29:30;;;;;;;5.78;5.18;;;26.00;92.50;;;;;;6249532;27;89654;-71
2023/07/09 11:32:33;;;;;;;6.25;5.40;;;26.00;92.60;;;;;;6247198;27;89067;-71
2023/07/09 11:35:47;;;;;;;5.80;5.30;;;26.00;92.60;;;;;;6245078;27;89121;-71
2023/07/09 11:38:49;;;;;;;5.65;5.15;;;26.00;92.60;;;;;;6247218;27;88301;-71
2023/07/09 11:41:51;;;;;;;6.20;5.60;;;26.00;92.60;;;;;;6242716;27;89089;-71
2023/07/09 11:44:58;;;;;;;6.00;5.10;;;26.00;92.60;;;;;;6251363;27;88013;-71
2023/07/09 11:48:12;;;;;;;6.13;5.53;;;26.00;92.60;;;;;;6247629;27;89359;-71
2023/07/09 11:51:37;;;;;;;6.15;5.18;;;26.00;92.60;;;;;;6250201;27;88279;-71
2023/07/09 11:54:39;;;;;;;7.20;5.45;;;26.00;92.60;;;;;;6249418;27;88972;-70
2023/07/09 11:57:41;;;;;;;7.35;5.68;;;26.00;93.40;;;;;;6252371;27;89137;-69
2023/07/09 12:00:46;;;;;;;9.30;5.55;;;26.00;93.40;;;;;;6247903;27;89015;-70
2023/07/09 12:03:50;;;;;;;7.65;5.32;;;26.10;93.80;;;;;;6254407;27;89057;-70
2023/07/09 12:06:58;;;;;;;9.50;5.90;;;26.00;93.80;;;;;;6253336;27;88942;-70
2023/07/09 12:10:03;;;;;;;10.32;6.03;;;26.00;93.80;;;;;;6243772;27;88303;-70
2023/07/09 12:13:05;;;;;;;8.98;6.40;;;26.10;93.90;;;;;;6245842;27;89092;-69
2023/07/09 12:16:22;;;;;;;12.77;7.03;;;26.10;93.90;;;;;;6250192;27;89304;-70
2023/07/09 12:19:30;;;;;;;13.40;7.35;;;26.10;94.00;;;;;;6251716;27;90315;-70
2023/07/09 12:22:32;;;;;;;13.00;7.50;;;26.10;94.00;;;;;;6253164;27;89004;-70
2023/07/09 12:25:35;;;;;;;13.68;7.60;;;26.10;94.00;;;;;;6255918;27;89189;-70
2023/07/09 12:28:37;;;;;;;15.05;8.27;;;26.10;94.00;;;;;;6254667;27;89094;-70
2023/07/09 12:31:41;;;;;;;15.38;7.93;;;26.10;94.00;;;;;;6240916;27;89068;-70
2023/07/09 12:34:48;;;;;;;14.38;8.85;;;26.00;94.20;;;;;;6239589;27;87987;-69
2023/07/09 12:37:53;;;;;;;16.40;7.55;;;26.10;94.10;;;;;;6252565;28;88922;-69
2023/07/09 12:40:56;;;;;;;15.40;7.82;;;26.10;93.90;;;;;;6249263;27;88263;-69
2023/07/09 12:43:58;;;;;;;15.50;8.20;;;26.10;93.80;;;;;;6245199;27;89045;-70
2023/07/09 12:47:34;;;;;;;12.98;7.60;;;26.10;93.80;;;;;;6250576;27;89026;-70
2023/07/09 12:50:37;;;;;;;13.85;8.05;;;26.10;94.00;;;;;;6250662;27;90072;-70
2023/07/09 12:53:40;;;;;;;15.25;8.90;;;26.10;94.00;;;;;;6252408;27;89047;-70
2023/07/09 12:56:42;;;;;;;15.00;8.20;;;26.10;94.10;;;;;;6246440;27;89087;-72
2023/07/09 12:59:47;;;;;;;14.43;7.95;;;26.10;94.30;;;;;;6250493;27;87887;-72
2023/07/09 13:02:55;;;;;;;14.10;8.43;;;26.10;94.50;;;;;;6251775;27;87951;-71
2023/07/09 13:06:00;;;;;;;12.25;8.05;;;26.10;94.60;;;;;;6248316;27;89037;-71
2023/07/09 13:09:06;;;;;;;13.50;8.00;;;26.10;94.50;;;;;;6251046;27;89016;-71
2023/07/09 13:12:11;;;;;;;17.00;8.30;;;26.10;94.60;;;;;;6239885;27;88290;-71
2023/07/09 13:15:30;;;;;;;12.05;7.72;;;26.10;94.60;;;;;;6244318;27;89020;-71
2023/07/09 13:18:32;;;;;;;17.00;8.15;;;26.10;94.50;;;;;;6231771;27;89459;-71
2023/07/09 13:21:39;;;;;;;14.25;8.02;;;26.10;94.40;;;;;;6241082;27;90030;-72
2023/07/09 13:24:41;;;;;;;11.63;7.65;;;26.10;94.30;;;;;;6246029;27;89131;-71
2023/07/09 13:27:44;;;;;;;12.27;7.25;;;26.10;94.20;;;;;;6252935;27;89045;-71
2023/07/09 13:30:46;;;;;;;14.15;7.93;;;26.10;94.20;;;;;;6251892;27;88110;-71
2023/07/09 13:33:54;;;;;;;12.85;8.07;;;26.10;94.20;;;;;;6250471;27;89165;-72
2023/07/09 13:36:58;;;;;;;13.02;8.02;;;26.10;94.30;;;;;;6238739;27;89022;-71
2023/07/09 13:40:00;;;;;;;11.23;7.70;;;26.10;94.40;;;;;;6253845;27;89056;-72
2023/07/09 13:43:03;;;;;;;11.88;8.02;;;26.10;94.60;;;;;;6245515;27;88260;-72
2023/07/09 13:46:07;;;;;;;13.65;7.65;;;26.10;94.80;;;;;;6248860;27;88237;-72
2023/07/09 13:49:11;;;;;;;13.90;7.75;;;26.10;94.80;;;;;;6241782;27;89085;-71
2023/07/09 13:52:19;;;;;;;13.18;7.63;;;26.10;94.80;;;;;;6258188;27;90327;-72
2023/07/09 13:55:23;;;;;;;11.85;7.82;;;26.20;94.90;;;;;;6252825;27;89080;-72
2023/07/09 13:58:27;;;;;;;12.05;7.43;;;26.10;94.80;;;;;;6259027;27;88894;-72
2023/07/09 14:01:29;;;;;;;12.07;7.18;;;26.10;94.70;;;;;;6246022;27;89117;-73
2023/07/09 14:04:32;;;;;;;13.48;7.70;;;26.10;94.60;;;;;;6243053;27;89497;-73
2023/07/09 14:07:37;;;;;;;11.18;7.22;;;26.10;94.60;;;;;;6252112;27;89187;-73
2023/07/09 14:10:39;;;;;;;10.40;6.75;;;26.20;94.60;;;;;;6250578;27;89134;-73
2023/07/09 14:13:42;;;;;;;11.55;7.30;;;26.10;94.50;;;;;;6251071;27;88711;-73
2023/07/09 14:16:44;;;;;;;10.52;7.10;;;26.10;94.40;;;;;;6246538;28;89085;-73
2023/07/09 14:19:46;;;;;;;11.77;7.57;;;26.10;94.40;;;;;;6243975;27;88342;-73
2023/07/09 14:22:51;;;;;;;11.82;6.88;;;26.10;94.30;;;;;;6246750;27;90313;-73
2023/07/09 14:25:53;;;;;;;12.10;7.22;;;26.20;94.30;;;;;;6248448;27;89506;-73
2023/07/09 14:28:56;;;;;;;10.52;6.78;;;26.10;94.30;;;;;;6248331;27;89378;-72
2023/07/09 14:31:58;;;;;;;10.05;6.72;;;26.10;94.80;;;;;;6233735;27;89240;-73
2023/07/09 14:35:01;;;;;;;11.90;7.15;;;26.20;95.00;;;;;;6246250;27;89139;-73
2023/07/09 14:38:11;;;;;;;13.45;7.10;;;26.10;95.40;;;;;;6252761;27;88989;-72
2023/07/09 14:41:22;;;;;;;11.80;7.13;;;26.20;95.30;;;;;;6233519;27;88151;-73
2023/07/09 14:44:27;;;;;;;12.70;7.75;;;26.20;95.60;;;;;;6254215;27;88413;-72
2023/07/09 14:47:29;;;;;;;9.73;7.18;;;26.20;95.80;;;;;;6251134;27;89048;-72
2023/07/09 14:50:31;;;;;;;11.95;7.47;;;26.20;95.70;;;;;;6257072;27;89193;-71
2023/07/09 14:53:34;;;;;;;9.82;6.95;;;26.20;95.50;;;;;;6252867;27;90128;-71
2023/07/09 14:56:36;;;;;;;11.65;7.38;;;26.10;95.30;;;;;;6255867;27;89128;-72
2023/07/09 14:59:38;;;;;;;10.45;6.82;;;26.20;95.30;;;;;;6243381;28;89373;-70
2023/07/09 15:02:42;;;;;;;8.48;6.55;;;26.20;95.20;;;;;;6254795;27;89441;-72
2023/07/09 15:05:44;;;;;;;9.82;7.07;;;26.10;95.10;;;;;;6250929;27;89418;-72
2023/07/09 15:08:48;;;;;;;9.32;6.65;;;26.20;95.10;;;;;;6245335;27;87881;-72
2023/07/09 15:11:52;;;;;;;9.63;6.68;;;26.20;95.00;;;;;;6247986;28;88000;-72
2023/07/09 15:14:57;;;;;;;12.90;7.50;;;26.20;94.90;;;;;;6249390;27;88744;-72
2023/07/09 15:18:09;;;;;;;8.57;6.55;;;26.10;94.70;;;;;;6201519;28;89312;-72
2023/07/09 15:21:12;;;;;;;9.07;6.70;;;26.20;94.60;;;;;;6243715;27;89067;-72
2023/07/09 15:24:21;;;;;;;10.10;6.80;;;26.20;94.50;;;;;;6250778;27;90146;-72
2023/07/09 15:27:23;;;;;;;11.43;6.95;;;26.20;94.50;;;;;;6244519;27;89066;-71
2023/07/09 15:30:26;;;;;;;8.38;6.85;;;26.20;94.40;;;;;;6247843;28;89076;-71
2023/07/09 15:33:29;;;;;;;8.27;6.97;;;26.20;94.40;;;;;;6242301;27;89549;-72
2023/07/09 15:36:31;;;;;;;9.32;6.80;;;26.20;94.30;;;;;;6249615;27;89039;-71
2023/07/09 15:39:34;;;;;;;9.82;6.65;;;26.20;94.30;;;;;;6249755;27;89160;-72
2023/07/09 15:42:36;;;;;;;8.20;6.68;;;26.20;94.20;;;;;;6251061;27;89263;-72
2023/07/09 15:45:42;;;;;;;10.20;6.95;;;26.20;94.20;;;;;;6244955;27;90245;-71
2023/07/09 15:48:45;;;;;;;8.23;6.40;;;26.20;94.20;;;;;;6241274;27;89130;-72
2023/07/09 15:51:47;;;;;;;60.95;22.58;;;26.20;94.20;;;;;;6242007;27;89189;-70
2023/07/09 15:54:50;;;;;;;161.90;50.42;;;26.20;95.70;;;;;;6251767;27;90033;-72
2023/07/09 15:57:54;;;;;;;384.48;95.05;;;26.30;99.90;;;;;;6235156;28;89274;-72
2023/07/09 16:00:56;;;;;;;240.27;92.57;;;26.40;99.90;;;;;;6247293;27;89285;-72
2023/07/09 16:04:02;;;;;;;302.90;131.88;;;26.50;99.90;;;;;;6249956;28;89399;-73
2023/07/09 16:07:04;;;;;;;171.68;71.53;;;26.60;99.90;;;;;;6242926;27;89016;-73
2023/07/09 16:10:08;;;;;;;139.10;56.33;;;26.70;99.90;;;;;;6250888;27;89451;-73
2023/07/09 16:13:19;;;;;;;94.53;42.13;;;26.80;97.90;;;;;;6244769;27;89023;-70
2023/07/09 16:16:24;;;;;;;96.93;39.65;;;26.80;96.60;;;;;;6250882;27;88309;-72
2023/07/09 16:19:28;;;;;;;87.20;36.38;;;26.90;95.80;;;;;;6251018;27;89038;-72
2023/07/09 16:22:30;;;;;;;73.40;35.30;;;26.90;95.50;;;;;;6249047;28;89265;-72
2023/07/09 16:25:35;;;;;;;73.20;33.95;;;26.80;95.20;;;;;;6249072;27;90055;-72
2023/07/09 16:28:37;;;;;;;69.60;31.95;;;26.80;95.10;;;;;;6247866;27;89246;-72
2023/07/09 16:31:39;;;;;;;66.97;31.27;;;26.80;94.90;;;;;;6248120;27;89123;-72
2023/07/09 16:34:42;;;;;;;61.90;29.85;;;26.80;94.90;;;;;;6249912;27;89257;-73
2023/07/09 16:37:45;;;;;;;68.05;31.35;;;26.80;94.70;;;;;;6243714;27;88029;-72
2023/07/09 16:40:48;;;;;;;72.03;30.45;;;26.70;94.50;;;;;;6238867;27;89070;-72
2023/07/09 16:43:50;;;;;;;67.50;30.35;;;26.70;94.40;;;;;;6241258;27;89227;-72
2023/07/09 16:46:53;;;;;;;62.58;29.90;;;26.60;94.40;;;;;;6240173;28;88347;-72
2023/07/09 16:49:57;;;;;;;61.25;28.58;;;26.60;94.30;;;;;;6239436;27;87930;-72
2023/07/09 16:52:59;;;;;;;59.72;27.85;;;26.60;94.30;;;;;;6244380;27;89289;-72
2023/07/09 16:56:02;;;;;;;57.28;26.60;;;26.50;94.40;;;;;;6249748;27;89161;-72
2023/07/09 16:59:04;;;;;;;57.08;27.00;;;26.60;94.50;;;;;;6244998;27;89221;-73
2023/07/09 17:02:24;;;;;;;54.50;26.08;;;26.50;94.50;;;;;;6249055;27;89305;-72
2023/07/09 17:05:28;;;;;;;53.47;24.25;;;26.50;94.50;;;;;;6254311;27;89230;-73
2023/07/09 17:08:30;;;;;;;50.60;25.58;;;26.50;94.60;;;;;;6266747;27;89264;-72
2023/07/09 17:11:33;;;;;;;55.72;24.77;;;26.40;94.70;;;;;;6242183;27;89260;-72
2023/07/09 17:14:35;;;;;;;51.50;23.85;;;26.40;94.70;;;;;;6255539;27;89107;-72
2023/07/09 17:17:37;;;;;;;48.28;23.73;;;26.40;94.80;;;;;;6255459;27;88313;-72
2023/07/09 17:20:39;;;;;;;52.83;24.33;;;26.40;94.80;;;;;;6244687;27;89392;-72
2023/07/09 17:23:41;;;;;;;48.13;22.73;;;26.40;94.80;;;;;;6238784;27;88911;-72
2023/07/09 17:26:45;;;;;;;45.53;21.95;;;26.40;94.70;;;;;;6249151;27;90261;-73
2023/07/09 17:29:47;;;;;;;43.83;22.85;;;26.40;94.70;;;;;;6253131;27;89134;-72